TAT21SB LFSB-LFRS
Flight info
| Callsign | TAT21SB |
|---|---|
| Flight time | 1h 9m |
| Altitude | 29000 |
| Route | BLM DCT LUL DCT DJL DCT CHX DCT POI DCT LUGEN |
| Aircraft | F28/M-SDFIRWY/H |
Departure
| Time | 2026-04-27 15:57 |
|---|---|
| Airport | EuroAirport Basel–Mulhouse–Freiburg (LFSB) |
Arrival
| Time | 2026-04-27 17:06 |
|---|---|
| Airport | Nantes Atlantique Airport (LFRS) |
| Time | Latitude | Longitude | Altitude | Speed | Heading |
|---|---|---|---|---|---|
| 2026-04-27 15:43 | 47.60124 | 7.52686 | 883 ft | 0 kts | 245° |
| 2026-04-27 15:51 | 47.60113 | 7.52649 | 883 ft | 9 kts | 245° |
| 2026-04-27 15:51 | 47.60061 | 7.52583 | 883 ft | 11 kts | 187° |
| 2026-04-27 15:52 | 47.59993 | 7.52538 | 883 ft | 11 kts | 203° |
| 2026-04-27 15:52 | 47.59910 | 7.52577 | 883 ft | 15 kts | 155° |
| 2026-04-27 15:52 | 47.59809 | 7.52645 | 883 ft | 16 kts | 155° |
| 2026-04-27 15:52 | 47.59705 | 7.52717 | 884 ft | 17 kts | 155° |
| 2026-04-27 15:53 | 47.59598 | 7.52793 | 885 ft | 17 kts | 154° |
| 2026-04-27 15:53 | 47.59490 | 7.52868 | 886 ft | 17 kts | 155° |
| 2026-04-27 15:53 | 47.59377 | 7.52945 | 887 ft | 19 kts | 155° |
| 2026-04-27 15:53 | 47.59255 | 7.53031 | 889 ft | 19 kts | 154° |
| 2026-04-27 15:54 | 47.59135 | 7.53115 | 889 ft | 19 kts | 154° |
| 2026-04-27 15:54 | 47.59017 | 7.53197 | 888 ft | 19 kts | 155° |
| 2026-04-27 15:54 | 47.58897 | 7.53283 | 888 ft | 19 kts | 154° |
| 2026-04-27 15:54 | 47.58778 | 7.53366 | 887 ft | 19 kts | 155° |
| 2026-04-27 15:55 | 47.58678 | 7.53390 | 888 ft | 10 kts | 224° |
| 2026-04-27 15:55 | 47.58650 | 7.53334 | 888 ft | 10 kts | 242° |
| 2026-04-27 15:55 | 47.58615 | 7.53208 | 886 ft | 7 kts | 271° |
| 2026-04-27 15:55 | 47.58630 | 7.53168 | 886 ft | 2 kts | 337° |
| 2026-04-27 15:56 | 47.58631 | 7.53167 | 886 ft | 0 kts | 338° |
| 2026-04-27 15:56 | 47.58866 | 7.53008 | 885 ft | 81 kts | 336° |
| 2026-04-27 15:57 | 47.59629 | 7.52470 | 902 ft | 158 kts | 335° |
| 2026-04-27 15:57 | 47.60697 | 7.51698 | 1702 ft | 179 kts | 337° |
| 2026-04-27 15:57 | 47.61835 | 7.50987 | 3110 ft | 178 kts | 340° |
| 2026-04-27 15:57 | 47.63073 | 7.50174 | 3935 ft | 211 kts | 335° |
| 2026-04-27 15:58 | 47.64426 | 7.49153 | 5002 ft | 221 kts | 335° |
| 2026-04-27 15:58 | 47.65854 | 7.48177 | 5908 ft | 237 kts | 336° |
| 2026-04-27 15:58 | 47.67394 | 7.47023 | 6283 ft | 256 kts | 326° |
| 2026-04-27 15:58 | 47.68571 | 7.45002 | 6650 ft | 268 kts | 295° |
| 2026-04-27 15:59 | 47.68959 | 7.42263 | 7060 ft | 280 kts | 267° |
| 2026-04-27 15:59 | 47.68651 | 7.39351 | 7577 ft | 292 kts | 258° |
| 2026-04-27 15:59 | 47.68260 | 7.36325 | 8142 ft | 305 kts | 259° |
| 2026-04-27 15:59 | 47.67913 | 7.33165 | 8759 ft | 315 kts | 262° |
| 2026-04-27 16:00 | 47.67648 | 7.29887 | 9407 ft | 324 kts | 264° |
| 2026-04-27 16:00 | 47.67518 | 7.27661 | 9863 ft | 329 kts | 265° |
| 2026-04-27 16:00 | 47.67320 | 7.23066 | 10764 ft | 338 kts | 266° |
| 2026-04-27 16:00 | 47.67194 | 7.19563 | 11469 ft | 342 kts | 267° |
| 2026-04-27 16:01 | 47.67079 | 7.16019 | 12189 ft | 346 kts | 267° |
| 2026-04-27 16:01 | 47.66976 | 7.12438 | 12914 ft | 348 kts | 268° |
| 2026-04-27 16:01 | 47.66984 | 7.08844 | 13671 ft | 350 kts | 272° |
| 2026-04-27 16:01 | 47.67052 | 7.05231 | 14377 ft | 351 kts | 271° |
| 2026-04-27 16:02 | 47.67132 | 7.01612 | 15055 ft | 351 kts | 272° |
| 2026-04-27 16:02 | 47.67217 | 6.98000 | 15739 ft | 351 kts | 272° |
| 2026-04-27 16:02 | 47.67303 | 6.94365 | 16337 ft | 354 kts | 272° |
| 2026-04-27 16:02 | 47.67387 | 6.90711 | 16938 ft | 355 kts | 272° |
| 2026-04-27 16:03 | 47.67474 | 6.87041 | 17555 ft | 356 kts | 272° |
| 2026-04-27 16:03 | 47.67560 | 6.83364 | 18182 ft | 357 kts | 272° |
| 2026-04-27 16:03 | 47.67619 | 6.80931 | 18570 ft | 357 kts | 272° |
| 2026-04-27 16:03 | 47.67733 | 6.76019 | 19312 ft | 356 kts | 272° |
| 2026-04-27 16:04 | 47.67792 | 6.73590 | 19677 ft | 355 kts | 272° |
| 2026-04-27 16:04 | 47.67876 | 6.69934 | 20224 ft | 354 kts | 272° |
| 2026-04-27 16:04 | 47.67992 | 6.65104 | 20867 ft | 354 kts | 272° |
| 2026-04-27 16:04 | 47.68076 | 6.61455 | 21348 ft | 354 kts | 272° |
| 2026-04-27 16:05 | 47.68162 | 6.57810 | 21845 ft | 353 kts | 272° |
| 2026-04-27 16:05 | 47.68221 | 6.55350 | 22181 ft | 353 kts | 272° |
| 2026-04-27 16:05 | 47.68305 | 6.51716 | 22680 ft | 352 kts | 272° |
| 2026-04-27 16:05 | 47.68391 | 6.48069 | 23061 ft | 355 kts | 272° |
| 2026-04-27 16:06 | 47.68478 | 6.44397 | 23439 ft | 357 kts | 271° |
| 2026-04-27 16:06 | 47.68574 | 6.40712 | 23798 ft | 358 kts | 271° |
| 2026-04-27 16:06 | 47.68655 | 6.37063 | 24108 ft | 359 kts | 271° |
| 2026-04-27 16:06 | 47.68740 | 6.33307 | 24441 ft | 360 kts | 271° |
| 2026-04-27 16:07 | 47.68829 | 6.29594 | 24771 ft | 360 kts | 271° |
| 2026-04-27 16:07 | 47.68909 | 6.25878 | 25106 ft | 360 kts | 271° |
| 2026-04-27 16:07 | 47.68984 | 6.22209 | 25427 ft | 360 kts | 271° |
| 2026-04-27 16:07 | 47.69059 | 6.18485 | 25696 ft | 362 kts | 271° |
| 2026-04-27 16:08 | 47.69134 | 6.14737 | 25954 ft | 364 kts | 271° |
| 2026-04-27 16:08 | 47.69210 | 6.10973 | 26210 ft | 366 kts | 271° |
| 2026-04-27 16:08 | 47.69285 | 6.07191 | 26475 ft | 367 kts | 271° |
| 2026-04-27 16:08 | 47.69360 | 6.03400 | 26743 ft | 368 kts | 271° |
| 2026-04-27 16:09 | 47.69436 | 5.99602 | 27009 ft | 369 kts | 271° |
| 2026-04-27 16:09 | 47.69586 | 5.91893 | 27247 ft | 378 kts | 271° |
| 2026-04-27 16:09 | 47.69663 | 5.87974 | 27369 ft | 382 kts | 271° |
| 2026-04-27 16:10 | 47.69654 | 5.80031 | 27613 ft | 389 kts | 260° |
| 2026-04-27 16:10 | 47.67673 | 5.72505 | 27886 ft | 396 kts | 244° |
| 2026-04-27 16:11 | 47.66374 | 5.68886 | 28041 ft | 399 kts | 243° |
| 2026-04-27 16:11 | 47.63648 | 5.61705 | 28427 ft | 400 kts | 242° |
| 2026-04-27 16:12 | 47.60753 | 5.54637 | 28812 ft | 402 kts | 240° |
| 2026-04-27 16:12 | 47.59283 | 5.51115 | 28997 ft | 402 kts | 240° |
| 2026-04-27 16:12 | 47.56116 | 5.44267 | 29314 ft | 406 kts | 234° |
| 2026-04-27 16:13 | 47.54329 | 5.40993 | 29275 ft | 412 kts | 233° |
| 2026-04-27 16:13 | 47.50584 | 5.34500 | 29080 ft | 414 kts | 232° |
| 2026-04-27 16:13 | 47.48697 | 5.31318 | 29094 ft | 410 kts | 231° |
| 2026-04-27 16:14 | 47.41086 | 5.18906 | 29101 ft | 408 kts | 230° |
| 2026-04-27 16:15 | 47.33343 | 5.06513 | 29104 ft | 415 kts | 230° |
| 2026-04-27 16:16 | 47.25458 | 4.93920 | 29100 ft | 421 kts | 230° |
| 2026-04-27 16:17 | 47.22647 | 4.86685 | 29108 ft | 404 kts | 260° |
| 2026-04-27 16:17 | 47.22014 | 4.78570 | 29104 ft | 396 kts | 266° |
| 2026-04-27 16:18 | 47.21525 | 4.62564 | 29095 ft | 392 kts | 269° |
| 2026-04-27 16:19 | 47.21297 | 4.54537 | 29089 ft | 396 kts | 262° |
| 2026-04-27 16:20 | 47.19314 | 4.38338 | 29097 ft | 408 kts | 260° |
| 2026-04-27 16:21 | 47.17538 | 4.25974 | 29092 ft | 416 kts | 258° |
| 2026-04-27 16:22 | 47.14927 | 4.09675 | 29090 ft | 403 kts | 257° |
| 2026-04-27 16:22 | 47.12869 | 3.97835 | 29085 ft | 395 kts | 256° |
| 2026-04-27 16:23 | 47.10669 | 3.86284 | 29086 ft | 393 kts | 257° |
| 2026-04-27 16:24 | 47.09322 | 3.78496 | 29087 ft | 394 kts | 257° |
| 2026-04-27 16:25 | 47.07477 | 3.62636 | 29091 ft | 395 kts | 262° |
| 2026-04-27 16:26 | 47.05762 | 3.46676 | 29092 ft | 397 kts | 262° |
| 2026-04-27 16:27 | 47.04033 | 3.30626 | 29111 ft | 402 kts | 262° |
| 2026-04-27 16:28 | 47.01836 | 3.10241 | 29103 ft | 408 kts | 262° |
| 2026-04-27 16:29 | 46.99614 | 2.89664 | 29104 ft | 412 kts | 262° |
| 2026-04-27 16:30 | 46.97818 | 2.73031 | 29114 ft | 415 kts | 262° |
| 2026-04-27 16:31 | 46.95585 | 2.52364 | 29107 ft | 408 kts | 262° |
| 2026-04-27 16:32 | 46.94258 | 2.40089 | 29102 ft | 406 kts | 262° |
| 2026-04-27 16:33 | 46.92938 | 2.27894 | 29110 ft | 404 kts | 262° |
| 2026-04-27 16:33 | 46.92063 | 2.19807 | 29109 ft | 403 kts | 262° |
| 2026-04-27 16:34 | 46.91186 | 2.11702 | 29108 ft | 403 kts | 262° |
| 2026-04-27 16:34 | 46.90307 | 2.03601 | 29099 ft | 403 kts | 262° |
| 2026-04-27 16:35 | 46.89428 | 1.95488 | 29102 ft | 405 kts | 262° |
| 2026-04-27 16:36 | 46.88099 | 1.83221 | 29102 ft | 409 kts | 262° |
| 2026-04-27 16:36 | 46.87141 | 1.75008 | 29098 ft | 412 kts | 256° |
| 2026-04-27 16:37 | 46.85475 | 1.66967 | 29102 ft | 414 kts | 253° |
| 2026-04-27 16:37 | 46.83778 | 1.58916 | 29100 ft | 415 kts | 255° |
| 2026-04-27 16:38 | 46.82215 | 1.50793 | 29104 ft | 416 kts | 255° |
| 2026-04-27 16:38 | 46.80867 | 1.42630 | 29105 ft | 416 kts | 257° |
| 2026-04-27 16:39 | 46.79322 | 1.34514 | 29106 ft | 414 kts | 255° |
| 2026-04-27 16:39 | 46.77733 | 1.26461 | 29104 ft | 412 kts | 255° |
| 2026-04-27 16:40 | 46.76153 | 1.18448 | 29106 ft | 410 kts | 255° |
| 2026-04-27 16:40 | 46.74581 | 1.10486 | 29104 ft | 408 kts | 255° |
| 2026-04-27 16:41 | 46.73018 | 1.02565 | 29106 ft | 406 kts | 255° |
| 2026-04-27 16:41 | 46.71631 | 0.94621 | 29110 ft | 404 kts | 257° |
| 2026-04-27 16:42 | 46.70073 | 0.86777 | 29109 ft | 403 kts | 254° |
| 2026-04-27 16:42 | 46.68435 | 0.78985 | 29111 ft | 402 kts | 253° |
| 2026-04-27 16:43 | 46.66785 | 0.71125 | 28517 ft | 416 kts | 253° |
| 2026-04-27 16:43 | 46.65932 | 0.67068 | 28027 ft | 420 kts | 253° |
| 2026-04-27 16:43 | 46.65078 | 0.63005 | 27560 ft | 419 kts | 253° |
| 2026-04-27 16:43 | 46.64225 | 0.58948 | 27095 ft | 419 kts | 253° |
| 2026-04-27 16:44 | 46.63374 | 0.54898 | 26644 ft | 419 kts | 253° |
| 2026-04-27 16:44 | 46.62523 | 0.50845 | 26203 ft | 418 kts | 253° |
| 2026-04-27 16:44 | 46.61674 | 0.46809 | 25767 ft | 416 kts | 253° |
| 2026-04-27 16:44 | 46.60829 | 0.42792 | 25345 ft | 415 kts | 253° |
| 2026-04-27 16:45 | 46.59986 | 0.38780 | 24932 ft | 414 kts | 253° |
| 2026-04-27 16:45 | 46.59145 | 0.34787 | 24524 ft | 413 kts | 253° |
| 2026-04-27 16:45 | 46.58306 | 0.30804 | 24135 ft | 411 kts | 253° |
| 2026-04-27 16:45 | 46.57482 | 0.26829 | 23748 ft | 410 kts | 253° |
| 2026-04-27 16:46 | 46.56664 | 0.22862 | 23310 ft | 409 kts | 253° |
| 2026-04-27 16:46 | 46.55850 | 0.18907 | 22859 ft | 408 kts | 253° |
| 2026-04-27 16:46 | 46.55050 | 0.15010 | 22430 ft | 407 kts | 253° |
| 2026-04-27 16:46 | 46.54239 | 0.11065 | 22004 ft | 407 kts | 253° |
| 2026-04-27 16:47 | 46.53717 | 0.07044 | 21564 ft | 407 kts | 267° |
| 2026-04-27 16:47 | 46.53879 | 0.02943 | 21150 ft | 408 kts | 280° |
| 2026-04-27 16:47 | 46.54604 | -0.01040 | 20762 ft | 407 kts | 286° |
| 2026-04-27 16:47 | 46.55463 | -0.04952 | 20386 ft | 407 kts | 287° |
| 2026-04-27 16:48 | 46.56365 | -0.08842 | 20016 ft | 406 kts | 288° |
| 2026-04-27 16:48 | 46.57262 | -0.12730 | 19651 ft | 405 kts | 287° |
| 2026-04-27 16:48 | 46.57977 | -0.16673 | 19297 ft | 403 kts | 279° |
| 2026-04-27 16:49 | 46.58104 | -0.24788 | 18598 ft | 401 kts | 270° |
| 2026-04-27 16:49 | 46.58103 | -0.28828 | 18240 ft | 399 kts | 269° |
| 2026-04-27 16:49 | 46.58099 | -0.32844 | 17846 ft | 396 kts | 270° |
| 2026-04-27 16:49 | 46.58099 | -0.36841 | 17464 ft | 395 kts | 270° |
| 2026-04-27 16:50 | 46.58098 | -0.40821 | 17096 ft | 393 kts | 270° |
| 2026-04-27 16:50 | 46.58099 | -0.44783 | 16730 ft | 392 kts | 270° |
| 2026-04-27 16:50 | 46.58099 | -0.48734 | 16362 ft | 390 kts | 270° |
| 2026-04-27 16:50 | 46.58099 | -0.52674 | 16006 ft | 389 kts | 270° |
| 2026-04-27 16:51 | 46.58099 | -0.56609 | 15658 ft | 389 kts | 270° |
| 2026-04-27 16:51 | 46.58100 | -0.60539 | 15319 ft | 388 kts | 270° |
| 2026-04-27 16:51 | 46.58100 | -0.64454 | 14986 ft | 387 kts | 270° |
| 2026-04-27 16:51 | 46.58099 | -0.68366 | 14655 ft | 387 kts | 270° |
| 2026-04-27 16:52 | 46.58099 | -0.72270 | 14345 ft | 386 kts | 270° |
| 2026-04-27 16:52 | 46.58099 | -0.74851 | 14128 ft | 386 kts | 270° |
| 2026-04-27 16:52 | 46.58099 | -0.78748 | 13794 ft | 385 kts | 270° |
| 2026-04-27 16:52 | 46.58100 | -0.82644 | 13434 ft | 385 kts | 270° |
| 2026-04-27 16:53 | 46.58100 | -0.86518 | 13099 ft | 379 kts | 270° |
| 2026-04-27 16:53 | 46.58100 | -0.91464 | 12641 ft | 361 kts | 270° |
| 2026-04-27 16:53 | 46.58100 | -0.95052 | 12286 ft | 350 kts | 270° |
| 2026-04-27 16:53 | 46.58100 | -0.98548 | 11926 ft | 341 kts | 270° |
| 2026-04-27 16:54 | 46.58100 | -1.00860 | 11701 ft | 336 kts | 270° |
| 2026-04-27 16:54 | 46.58099 | -1.04218 | 11351 ft | 329 kts | 270° |
| 2026-04-27 16:54 | 46.58154 | -1.07465 | 11000 ft | 323 kts | 272° |
| 2026-04-27 16:54 | 46.58272 | -1.10707 | 10659 ft | 318 kts | 273° |
| 2026-04-27 16:55 | 46.58410 | -1.13884 | 10321 ft | 313 kts | 274° |
| 2026-04-27 16:55 | 46.58558 | -1.17023 | 9980 ft | 309 kts | 274° |
| 2026-04-27 16:55 | 46.58710 | -1.20122 | 9599 ft | 306 kts | 274° |
| 2026-04-27 16:55 | 46.58861 | -1.23185 | 9255 ft | 302 kts | 274° |
| 2026-04-27 16:56 | 46.59010 | -1.26213 | 8892 ft | 299 kts | 274° |
| 2026-04-27 16:56 | 46.59158 | -1.29215 | 8538 ft | 296 kts | 274° |
| 2026-04-27 16:56 | 46.59305 | -1.32183 | 8185 ft | 293 kts | 274° |
| 2026-04-27 16:56 | 46.59761 | -1.35041 | 7810 ft | 292 kts | 296° |
| 2026-04-27 16:57 | 46.61032 | -1.37297 | 7443 ft | 290 kts | 323° |
| 2026-04-27 16:57 | 46.62800 | -1.38681 | 7104 ft | 289 kts | 336° |
| 2026-04-27 16:57 | 46.64657 | -1.39776 | 6782 ft | 287 kts | 341° |
| 2026-04-27 16:57 | 46.66566 | -1.40617 | 6448 ft | 286 kts | 343° |
| 2026-04-27 16:58 | 46.68477 | -1.41426 | 6124 ft | 286 kts | 344° |
| 2026-04-27 16:58 | 46.70389 | -1.42218 | 5790 ft | 285 kts | 345° |
| 2026-04-27 16:58 | 46.72298 | -1.43010 | 5477 ft | 285 kts | 345° |
| 2026-04-27 16:58 | 46.74197 | -1.43798 | 5181 ft | 284 kts | 345° |
| 2026-04-27 16:59 | 46.76095 | -1.44585 | 4899 ft | 283 kts | 345° |
| 2026-04-27 16:59 | 46.77984 | -1.45368 | 4603 ft | 282 kts | 345° |
| 2026-04-27 16:59 | 46.79874 | -1.46153 | 4299 ft | 282 kts | 345° |
| 2026-04-27 16:59 | 46.81756 | -1.46937 | 4042 ft | 281 kts | 345° |
| 2026-04-27 17:00 | 46.84859 | -1.48227 | 3580 ft | 281 kts | 345° |
| 2026-04-27 17:00 | 46.87369 | -1.49275 | 3181 ft | 280 kts | 345° |
| 2026-04-27 17:00 | 46.89245 | -1.50052 | 2917 ft | 280 kts | 345° |
| 2026-04-27 17:01 | 46.91117 | -1.50832 | 2646 ft | 280 kts | 345° |
| 2026-04-27 17:01 | 46.92973 | -1.51622 | 2554 ft | 275 kts | 342° |
| 2026-04-27 17:01 | 46.94567 | -1.53065 | 2561 ft | 270 kts | 314° |
| 2026-04-27 17:01 | 46.95737 | -1.55187 | 2618 ft | 266 kts | 307° |
| 2026-04-27 17:02 | 46.96807 | -1.57388 | 2650 ft | 264 kts | 306° |
| 2026-04-27 17:02 | 46.97860 | -1.59592 | 2701 ft | 264 kts | 307° |
| 2026-04-27 17:02 | 46.98936 | -1.61763 | 2682 ft | 264 kts | 307° |
| 2026-04-27 17:02 | 47.00011 | -1.63944 | 2679 ft | 264 kts | 307° |
| 2026-04-27 17:03 | 47.01090 | -1.66120 | 2694 ft | 264 kts | 307° |
| 2026-04-27 17:03 | 47.02339 | -1.68058 | 2692 ft | 261 kts | 328° |
| 2026-04-27 17:03 | 47.04035 | -1.68881 | 2706 ft | 258 kts | 356° |
| 2026-04-27 17:03 | 47.05807 | -1.68619 | 2604 ft | 260 kts | 19° |
| 2026-04-27 17:04 | 47.07285 | -1.67443 | 2054 ft | 212 kts | 35° |
| 2026-04-27 17:04 | 47.08286 | -1.66409 | 1704 ft | 150 kts | 32° |
| 2026-04-27 17:04 | 47.09089 | -1.65726 | 1348 ft | 125 kts | 26° |
| 2026-04-27 17:04 | 47.09913 | -1.65110 | 1124 ft | 134 kts | 25° |
| 2026-04-27 17:05 | 47.10741 | -1.64493 | 932 ft | 130 kts | 25° |
| 2026-04-27 17:05 | 47.11524 | -1.63942 | 668 ft | 123 kts | 25° |
| 2026-04-27 17:05 | 47.12316 | -1.63378 | 552 ft | 123 kts | 26° |
| 2026-04-27 17:05 | 47.13035 | -1.62807 | 397 ft | 118 kts | 27° |
| 2026-04-27 17:06 | 47.13760 | -1.62263 | 202 ft | 120 kts | 27° |
| 2026-04-27 17:06 | 47.14513 | -1.61684 | 104 ft | 112 kts | 26° |
| 2026-04-27 17:06 | 47.15084 | -1.61274 | 93 ft | 71 kts | 29° |
| 2026-04-27 17:06 | 47.15410 | -1.60999 | 92 ft | 45 kts | 28° |
| 2026-04-27 17:07 | 47.15588 | -1.60863 | 92 ft | 6 kts | 27° |